createdAt,value
2018-10-19T00:01:07.553Z,11.00
2018-10-19T00:03:36.469Z,11.65
2018-10-19T00:06:05.477Z,11.40
2018-10-19T00:08:34.390Z,11.40
2018-10-19T00:11:03.359Z,10.35
2018-10-19T00:13:32.237Z,10.48
2018-10-19T00:16:01.162Z,10.43
2018-10-19T00:18:30.097Z,9.08
2018-10-19T00:20:59.038Z,8.80
2018-10-19T00:23:27.912Z,7.92
2018-10-19T00:25:56.809Z,7.70
2018-10-19T00:28:25.761Z,8.10
2018-10-19T00:30:54.674Z,7.70
2018-10-19T00:33:23.598Z,6.00
2018-10-19T00:35:52.518Z,5.33
2018-10-19T00:38:21.429Z,6.60
2018-10-19T00:40:50.341Z,7.10
2018-10-19T00:43:19.294Z,7.35
2018-10-19T00:45:48.202Z,7.53
2018-10-19T00:48:18.333Z,7.80
2018-10-19T00:50:47.242Z,8.23
2018-10-19T00:53:16.513Z,8.20
2018-10-19T00:55:45.321Z,7.70
2018-10-19T00:58:14.222Z,8.03
2018-10-19T01:00:43.456Z,7.15
2018-10-19T01:03:12.381Z,7.85
2018-10-19T01:05:41.654Z,7.30
2018-10-19T01:08:11.069Z,8.05
2018-10-19T01:10:40.023Z,7.75
2018-10-19T01:13:08.913Z,8.10
2018-10-19T01:15:37.841Z,8.15
2018-10-19T01:18:06.773Z,5.58
2018-10-19T01:20:35.682Z,6.30
2018-10-19T01:23:04.657Z,4.20
2018-10-19T01:25:33.529Z,4.47
2018-10-19T01:28:02.416Z,3.90
2018-10-19T01:30:31.336Z,3.60
2018-10-19T01:33:00.250Z,3.90
2018-10-19T01:35:29.154Z,4.60
2018-10-19T01:37:58.078Z,4.60
2018-10-19T01:40:27.033Z,5.87
2018-10-19T01:42:55.929Z,5.05
2018-10-19T01:45:24.849Z,5.20
2018-10-19T01:47:53.765Z,5.30
2018-10-19T01:50:22.682Z,6.30
2018-10-19T01:52:51.582Z,6.10
2018-10-19T01:55:20.513Z,7.15
2018-10-19T01:57:49.421Z,7.63
2018-10-19T02:00:18.309Z,9.25
2018-10-19T02:02:47.254Z,11.05
2018-10-19T02:05:16.278Z,10.80
2018-10-19T02:07:45.092Z,12.30
2018-10-19T02:10:14.018Z,12.35
2018-10-19T02:12:42.945Z,12.43
2018-10-19T02:15:11.915Z,12.60
2018-10-19T02:17:40.813Z,10.00
2018-10-19T02:20:09.718Z,10.13
2018-10-19T02:22:38.649Z,11.28
2018-10-19T02:25:07.616Z,11.50
2018-10-19T02:27:36.517Z,12.57
2018-10-19T02:30:06.381Z,13.72
2018-10-19T02:32:35.322Z,13.30
2018-10-19T02:35:04.270Z,13.43
2018-10-19T02:37:33.145Z,13.05
2018-10-19T02:40:02.137Z,13.35
2018-10-19T02:42:31.077Z,12.35
2018-10-19T02:45:00.054Z,12.70
2018-10-19T02:47:28.948Z,11.30
2018-10-19T02:49:57.845Z,12.10
2018-10-19T02:52:26.823Z,11.70
2018-10-19T02:54:55.713Z,10.88
2018-10-19T02:57:24.638Z,8.00
2018-10-19T02:59:53.547Z,7.80
2018-10-19T03:02:22.462Z,9.10
2018-10-19T03:04:51.362Z,8.20
2018-10-19T03:07:20.305Z,8.78
2018-10-19T03:09:49.201Z,7.50
2018-10-19T03:12:18.129Z,7.47
2018-10-19T03:14:47.049Z,7.95
2018-10-19T03:17:16.064Z,6.97
2018-10-19T03:19:44.902Z,6.78
2018-10-19T03:22:13.836Z,8.10
2018-10-19T03:24:42.754Z,7.47
2018-10-19T03:27:11.728Z,8.95
2018-10-19T03:29:40.582Z,8.93
2018-10-19T03:32:09.474Z,9.80
2018-10-19T03:34:38.386Z,9.73
2018-10-19T03:37:07.313Z,9.78
2018-10-19T03:39:36.242Z,10.20
2018-10-19T03:42:05.438Z,10.45
2018-10-19T03:44:34.354Z,10.38
2018-10-19T03:47:03.306Z,12.30
2018-10-19T03:49:32.209Z,11.78
2018-10-19T03:52:01.105Z,11.70
2018-10-19T03:54:30.025Z,10.20
2018-10-19T03:56:59.009Z,10.40
2018-10-19T03:59:27.890Z,10.13
2018-10-19T04:01:56.800Z,10.03
2018-10-19T04:04:25.730Z,9.65
2018-10-19T04:06:54.629Z,10.40
2018-10-19T04:09:23.541Z,8.63
2018-10-19T04:11:52.450Z,9.18
2018-10-19T04:14:21.361Z,9.10
2018-10-19T04:16:50.245Z,9.60
2018-10-19T04:19:19.189Z,9.60
2018-10-19T04:21:48.104Z,8.90
2018-10-19T04:24:17.037Z,9.65
2018-10-19T04:26:45.945Z,9.38
2018-10-19T04:29:14.923Z,8.90
2018-10-19T04:31:43.773Z,9.10
2018-10-19T04:34:12.702Z,9.28
2018-10-19T04:36:41.605Z,9.25
2018-10-19T04:39:10.681Z,9.78
2018-10-19T04:41:39.607Z,10.13
2018-10-19T04:44:08.514Z,9.80
2018-10-19T04:46:37.489Z,9.30
2018-10-19T04:49:06.433Z,8.50
2018-10-19T04:51:35.359Z,9.00
2018-10-19T04:54:04.290Z,9.15
2018-10-19T04:56:33.219Z,9.38
2018-10-19T04:59:02.171Z,9.28
2018-10-19T05:01:31.081Z,9.38
2018-10-19T05:04:00.002Z,10.10
2018-10-19T05:06:28.972Z,10.18
2018-10-19T05:08:57.866Z,8.60
2018-10-19T05:11:26.812Z,9.18
2018-10-19T05:13:55.804Z,9.15
2018-10-19T05:16:24.667Z,9.35
2018-10-19T05:18:53.602Z,10.32
2018-10-19T05:21:22.552Z,9.40
2018-10-19T05:23:51.465Z,8.93
2018-10-19T05:26:20.478Z,10.38
2018-10-19T05:28:49.384Z,10.85
2018-10-19T05:31:18.349Z,10.20
2018-10-19T05:33:47.265Z,10.58
2018-10-19T05:36:16.258Z,10.00
2018-10-19T05:38:45.185Z,11.70
2018-10-19T05:41:14.288Z,10.57
2018-10-19T05:43:43.297Z,10.87
2018-10-19T05:46:13.197Z,10.70
2018-10-19T05:48:43.171Z,11.97
2018-10-19T05:51:12.143Z,10.95
2018-10-19T05:53:42.274Z,11.97
2018-10-19T05:56:11.373Z,11.27
2018-10-19T05:58:40.179Z,10.93
2018-10-19T06:01:09.166Z,11.40
2018-10-19T06:03:38.126Z,10.50
2018-10-19T06:06:07.086Z,10.40
2018-10-19T06:08:35.977Z,10.65
2018-10-19T06:11:05.504Z,8.45
2018-10-19T06:13:34.609Z,8.53
2018-10-19T06:16:03.513Z,8.70
2018-10-19T06:18:32.694Z,7.95
2018-10-19T06:21:01.699Z,8.43
2018-10-19T06:23:30.574Z,7.85
2018-10-19T06:25:59.720Z,8.33
2018-10-19T06:28:28.650Z,8.95
2018-10-19T06:30:57.593Z,9.40
2018-10-19T06:33:26.548Z,9.38
2018-10-19T06:35:55.493Z,9.20
2018-10-19T06:38:24.464Z,10.55
2018-10-19T06:40:53.521Z,10.00
2018-10-19T06:43:22.422Z,9.80
2018-10-19T06:45:51.425Z,9.40
2018-10-19T06:48:20.402Z,8.23
2018-10-19T06:50:49.356Z,8.75
2018-10-19T06:53:18.294Z,8.00
2018-10-19T06:55:47.316Z,9.07
2018-10-19T06:58:16.267Z,9.40
2018-10-19T07:00:45.221Z,9.40
2018-10-19T07:03:14.175Z,10.53
2018-10-19T07:05:43.170Z,8.87
2018-10-19T07:08:12.065Z,9.30
2018-10-19T07:10:40.982Z,8.80
2018-10-19T07:13:09.929Z,8.65
2018-10-19T07:15:38.837Z,8.47
2018-10-19T07:18:07.814Z,8.25
2018-10-19T07:20:36.789Z,9.53
2018-10-19T07:23:05.756Z,8.73
2018-10-19T07:25:34.713Z,9.70
2018-10-19T07:28:03.617Z,9.20
2018-10-19T07:30:32.554Z,9.35
2018-10-19T07:33:01.478Z,7.50
2018-10-19T07:35:30.772Z,7.97
2018-10-19T07:38:00.060Z,8.00
2018-10-19T07:40:29.082Z,7.62
2018-10-19T07:42:58.537Z,7.95
2018-10-19T07:45:27.686Z,7.40
2018-10-19T07:47:56.902Z,8.10
2018-10-19T07:50:25.647Z,7.70
2018-10-19T07:52:54.577Z,8.05
2018-10-19T07:55:23.552Z,8.20
2018-10-19T07:57:52.465Z,8.63
2018-10-19T08:00:21.462Z,8.53
2018-10-19T08:02:50.313Z,7.80
2018-10-19T08:05:19.237Z,9.20
2018-10-19T08:07:48.281Z,9.57
2018-10-19T08:10:17.222Z,9.70
2018-10-19T08:12:46.148Z,9.20
2018-10-19T08:15:15.154Z,9.50
2018-10-19T08:17:44.095Z,9.80
2018-10-19T08:20:13.778Z,9.20
2018-10-19T08:22:42.659Z,10.20
2018-10-19T08:25:11.565Z,10.72
2018-10-19T08:27:40.520Z,10.88
2018-10-19T08:30:09.471Z,10.85
2018-10-19T08:32:38.420Z,11.00
2018-10-19T08:35:07.750Z,11.30
2018-10-19T08:37:36.665Z,11.97
2018-10-19T08:40:06.715Z,11.20
2018-10-19T08:42:35.658Z,11.55
2018-10-19T08:45:04.953Z,11.80
2018-10-19T08:47:33.857Z,11.18
2018-10-19T08:50:02.765Z,12.00
2018-10-19T08:52:31.723Z,12.00
2018-10-19T08:55:00.691Z,11.90
2018-10-19T08:57:29.601Z,11.73
2018-10-19T08:59:58.557Z,11.70
2018-10-19T09:02:27.445Z,12.10
2018-10-19T09:04:56.461Z,12.78
2018-10-19T09:07:25.473Z,11.13
2018-10-19T09:09:54.395Z,11.67
2018-10-19T09:12:23.374Z,11.00
2018-10-19T09:14:55.546Z,10.90
2018-10-19T09:17:24.521Z,10.10
2018-10-19T09:19:53.713Z,10.18
2018-10-19T09:22:22.710Z,10.37
2018-10-19T09:24:51.990Z,9.90
2018-10-19T09:27:21.098Z,10.05
2018-10-19T09:29:50.030Z,9.33
2018-10-19T09:32:18.961Z,8.80
2018-10-19T09:34:47.870Z,8.18
2018-10-19T09:37:16.823Z,7.50
2018-10-19T09:39:45.788Z,8.20
2018-10-19T09:42:14.783Z,7.17
2018-10-19T09:44:43.649Z,7.67
2018-10-19T09:47:12.608Z,6.90
2018-10-19T09:49:41.481Z,6.33
2018-10-19T09:52:10.393Z,6.37
2018-10-19T09:54:39.313Z,6.30
2018-10-19T09:57:08.616Z,6.37
2018-10-19T09:59:37.525Z,6.23
2018-10-19T10:02:06.484Z,6.80
2018-10-19T10:04:35.408Z,6.80
2018-10-19T10:07:04.700Z,6.50
2018-10-19T10:09:33.622Z,5.75
2018-10-19T10:12:02.529Z,5.97
2018-10-19T10:14:31.463Z,6.03
2018-10-19T10:17:00.443Z,5.90
2018-10-19T10:19:30.394Z,5.50
2018-10-19T10:21:59.367Z,5.50
2018-10-19T10:24:28.297Z,5.60
2018-10-19T10:26:57.197Z,5.10
2018-10-19T10:29:26.138Z,4.80
2018-10-19T10:31:55.102Z,4.67
2018-10-19T10:34:24.045Z,5.20
2018-10-19T10:36:53.048Z,5.85
2018-10-19T10:39:22.085Z,4.90
2018-10-19T10:41:50.922Z,4.87
2018-10-19T10:44:19.864Z,4.90
2018-10-19T10:46:48.810Z,5.40
2018-10-19T10:49:17.789Z,5.17
2018-10-19T10:51:46.657Z,4.90
2018-10-19T10:54:15.586Z,4.83
2018-10-19T10:56:44.509Z,5.37
2018-10-19T10:59:13.464Z,5.03
2018-10-19T11:01:42.371Z,5.97
2018-10-19T11:04:11.376Z,4.72
2018-10-19T11:06:40.947Z,4.10
2018-10-19T11:09:11.073Z,4.70
2018-10-19T11:11:40.061Z,4.20
2018-10-19T11:14:08.974Z,4.60
2018-10-19T11:16:37.901Z,4.30
2018-10-19T11:19:06.881Z,4.30
2018-10-19T11:21:35.766Z,4.55
2018-10-19T11:24:04.888Z,4.58
2018-10-19T11:26:33.721Z,4.30
2018-10-19T11:29:02.638Z,4.37
2018-10-19T11:31:31.588Z,4.30
2018-10-19T11:34:00.493Z,4.20
2018-10-19T11:36:29.449Z,4.83
2018-10-19T11:38:58.370Z,4.43
2018-10-19T11:41:27.300Z,4.37
2018-10-19T11:43:56.250Z,4.20
2018-10-19T11:46:25.189Z,4.20
2018-10-19T11:48:54.133Z,3.60
2018-10-19T11:51:23.037Z,4.62
2018-10-19T11:53:51.974Z,5.67
2018-10-19T11:56:20.992Z,4.87
2018-10-19T11:58:49.898Z,4.55
2018-10-19T12:01:18.893Z,4.93
2018-10-19T12:03:47.810Z,5.03
2018-10-19T12:06:16.776Z,4.43
2018-10-19T12:08:45.694Z,4.57
2018-10-19T12:11:14.628Z,4.50
2018-10-19T12:13:43.541Z,4.10
2018-10-19T12:16:12.606Z,4.03
2018-10-19T12:18:41.441Z,3.50
2018-10-19T12:21:10.411Z,3.70
2018-10-19T12:23:39.357Z,4.03
2018-10-19T12:26:08.407Z,4.00
2018-10-19T12:28:37.189Z,4.13
2018-10-19T12:31:06.294Z,3.50
2018-10-19T12:33:35.160Z,3.75
2018-10-19T12:36:04.748Z,4.08
2018-10-19T12:38:33.682Z,4.20
2018-10-19T12:41:02.601Z,3.77
2018-10-19T12:43:31.518Z,3.85
2018-10-19T12:46:21.316Z,3.07
2018-10-19T12:48:50.766Z,3.10
2018-10-19T12:51:20.385Z,3.20
2018-10-19T12:53:49.473Z,3.30
2018-10-19T12:56:19.914Z,3.50
2018-10-19T12:58:49.839Z,3.57
2018-10-19T13:01:19.015Z,3.12
2018-10-19T13:03:47.983Z,3.10
2018-10-19T13:06:16.873Z,3.40
2018-10-19T13:08:45.842Z,3.37
2018-10-19T13:11:14.783Z,3.45
2018-10-19T13:13:43.726Z,2.77
2018-10-19T13:16:12.702Z,3.25
2018-10-19T13:18:41.608Z,3.30
2018-10-19T13:21:11.117Z,3.10
2018-10-19T13:23:40.063Z,3.40
2018-10-19T13:26:08.993Z,3.33
2018-10-19T13:28:37.953Z,3.20
2018-10-19T13:31:06.947Z,2.62
2018-10-19T13:33:35.909Z,2.90
2018-10-19T13:36:05.076Z,2.70
2018-10-19T13:38:34.021Z,3.80
2018-10-19T13:41:02.945Z,3.50
2018-10-19T13:43:31.962Z,2.62
2018-10-19T13:46:00.910Z,2.60
2018-10-19T13:48:29.845Z,3.00
2018-10-19T13:50:58.795Z,2.95
2018-10-19T13:53:27.697Z,3.20
2018-10-19T13:55:56.621Z,2.80
2018-10-19T13:58:25.852Z,2.50
2018-10-19T14:00:54.709Z,3.10
2018-10-19T14:03:23.804Z,3.10
2018-10-19T14:05:52.754Z,3.30
2018-10-19T14:08:21.793Z,3.03
2018-10-19T14:10:50.717Z,2.90
2018-10-19T14:13:20.195Z,3.20
2018-10-19T14:15:49.113Z,2.60
2018-10-19T14:18:18.293Z,2.60
2018-10-19T14:20:47.261Z,2.70
2018-10-19T14:23:16.238Z,2.77
2018-10-19T14:25:45.385Z,2.70
2018-10-19T14:28:14.310Z,2.92
2018-10-19T14:30:43.250Z,2.37
2018-10-19T14:33:12.232Z,2.80
2018-10-19T14:35:41.162Z,2.70
2018-10-19T14:38:10.095Z,2.60
2018-10-19T14:40:39.070Z,2.80
2018-10-19T14:43:08.004Z,2.93
2018-10-19T14:45:36.940Z,3.30
2018-10-19T14:48:05.856Z,3.10
2018-10-19T14:50:34.783Z,2.70
2018-10-19T14:53:03.709Z,2.80
2018-10-19T14:55:33.450Z,2.90
2018-10-19T14:58:02.358Z,3.10
2018-10-19T15:00:31.294Z,3.60
2018-10-19T15:03:00.203Z,2.98
2018-10-19T15:05:29.133Z,2.83
2018-10-19T15:07:58.046Z,3.53
2018-10-19T15:10:27.214Z,3.10
2018-10-19T15:12:55.965Z,3.40
2018-10-19T15:15:24.910Z,3.20
2018-10-19T15:17:53.879Z,2.90
2018-10-19T15:20:22.810Z,3.30
2018-10-19T15:22:51.760Z,3.23
2018-10-19T15:25:20.689Z,3.20
2018-10-19T15:27:49.608Z,3.35
2018-10-19T15:30:19.530Z,3.37
2018-10-19T15:32:48.409Z,3.33
2018-10-19T15:35:17.412Z,3.23
2018-10-19T15:37:46.317Z,2.90
2018-10-19T15:40:15.241Z,2.95
2018-10-19T15:42:44.166Z,2.83
2018-10-19T15:45:13.517Z,2.60
2018-10-19T15:47:42.453Z,3.00
2018-10-19T15:50:11.377Z,3.00
2018-10-19T15:52:40.300Z,2.70
2018-10-19T15:55:09.305Z,2.83
2018-10-19T15:57:38.197Z,2.60
2018-10-19T16:00:09.049Z,2.87
2018-10-19T16:02:37.995Z,3.20
2018-10-19T16:05:06.931Z,2.30
2018-10-19T16:07:35.874Z,2.70
2018-10-19T16:10:05.600Z,2.73
2018-10-19T16:12:34.543Z,2.50
2018-10-19T16:15:03.543Z,2.60
2018-10-19T16:17:32.479Z,2.70
2018-10-19T16:20:01.342Z,2.58
2018-10-19T16:22:30.277Z,2.50
2018-10-19T16:24:59.175Z,2.60
2018-10-19T16:27:28.200Z,2.90
2018-10-19T16:29:57.083Z,2.42
2018-10-19T16:32:25.987Z,2.60
2018-10-19T16:34:54.955Z,3.30
2018-10-19T16:37:23.845Z,2.90
2018-10-19T16:39:52.769Z,3.10
2018-10-19T16:42:21.718Z,3.90
2018-10-19T16:44:50.661Z,3.60
2018-10-19T16:47:19.606Z,6.93
2018-10-19T16:49:48.522Z,3.58
2018-10-19T16:52:17.543Z,3.22
2018-10-19T16:54:46.430Z,3.10
2018-10-19T16:57:15.511Z,3.10
2018-10-19T16:59:44.366Z,3.00
2018-10-19T17:02:13.307Z,2.87
2018-10-19T17:04:42.281Z,2.10
2018-10-19T17:07:11.185Z,3.40
2018-10-19T17:09:40.166Z,2.70
2018-10-19T17:12:09.178Z,2.55
2018-10-19T17:14:38.278Z,2.80
2018-10-19T17:17:08.093Z,2.58
2018-10-19T17:19:37.025Z,3.00
2018-10-19T17:22:06.081Z,3.72
2018-10-19T17:24:35.013Z,4.53
2018-10-19T17:27:03.962Z,5.45
2018-10-19T17:29:32.973Z,6.05
2018-10-19T17:32:01.904Z,6.60
2018-10-19T17:34:30.845Z,5.90
2018-10-19T17:36:59.883Z,5.65
2018-10-19T17:39:28.828Z,4.77
2018-10-19T17:41:57.784Z,4.60
2018-10-19T17:44:26.733Z,3.77
2018-10-19T17:46:55.750Z,4.23
2018-10-19T17:49:24.645Z,4.90
2018-10-19T17:51:53.575Z,4.97
2018-10-19T17:54:22.540Z,4.40
2018-10-19T17:56:51.645Z,4.60
2018-10-19T17:59:20.627Z,3.80
2018-10-19T18:01:49.546Z,3.75
2018-10-19T18:04:18.505Z,3.20
2018-10-19T18:06:47.457Z,3.40
2018-10-19T18:09:16.471Z,3.60
2018-10-19T18:11:45.438Z,3.10
2018-10-19T18:14:14.298Z,2.80
2018-10-19T18:16:43.229Z,3.57
2018-10-19T18:19:12.199Z,3.73
2018-10-19T18:21:41.160Z,3.65
2018-10-19T18:24:10.111Z,4.00
2018-10-19T18:26:39.861Z,3.30
2018-10-19T18:29:08.970Z,3.50
2018-10-19T18:31:37.831Z,3.50
2018-10-19T18:34:06.781Z,3.85
2018-10-19T18:36:35.750Z,7.43
2018-10-19T18:39:06.645Z,7.60
2018-10-19T18:41:35.609Z,7.12
2018-10-19T18:44:05.113Z,6.72
2018-10-19T18:46:34.019Z,6.40
2018-10-19T18:49:02.945Z,5.60
2018-10-19T18:51:31.955Z,4.97
2018-10-19T18:54:00.885Z,3.63
2018-10-19T18:56:29.889Z,4.20
2018-10-19T18:58:58.862Z,3.60
2018-10-19T19:01:27.849Z,3.37
2018-10-19T19:03:56.775Z,3.30
2018-10-19T19:06:25.717Z,3.40
2018-10-19T19:08:54.661Z,3.33
2018-10-19T19:11:23.617Z,3.40
2018-10-19T19:13:52.566Z,4.77
2018-10-19T19:16:27.443Z,3.47
2018-10-19T19:18:56.697Z,2.85
2018-10-19T19:21:25.774Z,2.90
2018-10-19T19:23:59.906Z,3.10
2018-10-19T19:26:28.965Z,3.77
2018-10-19T19:28:58.317Z,3.20
2018-10-19T19:31:27.265Z,3.00
2018-10-19T19:34:01.462Z,3.62
2018-10-19T19:36:30.401Z,2.80
2018-10-19T19:38:59.345Z,2.77
2018-10-19T19:41:33.662Z,3.17
2018-10-19T19:44:02.759Z,2.87
2018-10-19T19:46:31.703Z,3.00
2018-10-19T19:49:05.923Z,3.10
2018-10-19T19:51:34.870Z,3.70
2018-10-19T19:54:03.814Z,3.56
2018-10-19T19:56:32.809Z,3.10
2018-10-19T19:59:01.795Z,3.73
2018-10-19T20:01:30.790Z,4.53
2018-10-19T20:03:59.723Z,5.45
2018-10-19T20:06:28.665Z,5.20
2018-10-19T20:08:57.695Z,6.70
2018-10-19T20:11:26.645Z,6.50
2018-10-19T20:13:55.606Z,6.00
2018-10-19T20:16:24.533Z,5.60
2018-10-19T20:18:53.465Z,5.33
2018-10-19T20:21:22.954Z,4.10
2018-10-19T20:23:51.898Z,6.83
2018-10-19T20:26:20.823Z,4.30
2018-10-19T20:28:49.741Z,4.65
2018-10-19T20:31:18.670Z,4.20
2018-10-19T20:33:47.620Z,4.10
2018-10-19T20:36:16.529Z,3.85
2018-10-19T20:38:45.470Z,3.72
2018-10-19T20:41:14.391Z,2.95
2018-10-19T20:43:43.326Z,3.47
2018-10-19T20:46:12.245Z,3.00
2018-10-19T20:48:41.170Z,3.20
2018-10-19T20:51:10.110Z,3.42
2018-10-19T20:53:39.046Z,3.40
2018-10-19T20:56:07.991Z,4.07
2018-10-19T20:58:36.881Z,3.20
2018-10-19T21:01:05.861Z,3.05
2018-10-19T21:03:34.818Z,2.87
2018-10-19T21:06:03.759Z,4.20
2018-10-19T21:08:33.481Z,3.58
2018-10-19T21:11:02.435Z,3.50
2018-10-19T21:13:31.357Z,3.70
2018-10-19T21:16:00.291Z,4.00
2018-10-19T21:18:29.241Z,3.35
2018-10-19T21:20:58.154Z,3.00
2018-10-19T21:23:27.087Z,3.00
2018-10-19T21:25:56.047Z,2.65
2018-10-19T21:28:25.013Z,3.00
2018-10-19T21:30:54.787Z,3.10
2018-10-19T21:33:23.733Z,3.05
2018-10-19T21:35:52.687Z,3.12
2018-10-19T21:38:21.609Z,3.00
2018-10-19T21:40:50.513Z,3.20
2018-10-19T21:43:19.449Z,3.73
2018-10-19T21:45:51.435Z,3.43
2018-10-19T21:48:20.357Z,2.55
2018-10-19T21:50:49.291Z,2.80
2018-10-19T21:53:18.197Z,2.80
2018-10-19T21:55:47.246Z,2.80
2018-10-19T21:58:16.600Z,2.80
2018-10-19T22:00:45.602Z,3.07
2018-10-19T22:03:14.515Z,2.90
2018-10-19T22:05:43.449Z,2.80
2018-10-19T22:08:12.402Z,3.43
2018-10-19T22:10:41.321Z,3.08
2018-10-19T22:13:10.374Z,3.12
2018-10-19T22:15:39.193Z,3.50
2018-10-19T22:18:08.771Z,3.17
2018-10-19T22:20:37.746Z,3.70
2018-10-19T22:23:07.422Z,3.50
2018-10-19T22:25:36.309Z,3.10
2018-10-19T22:28:06.021Z,3.60
2018-10-19T22:30:34.973Z,3.70
2018-10-19T22:33:04.479Z,4.13
2018-10-19T22:35:33.449Z,3.70
2018-10-19T22:38:02.361Z,3.83
2018-10-19T22:40:31.281Z,4.30
2018-10-19T22:43:00.234Z,3.52
2018-10-19T22:45:29.101Z,4.00
2018-10-19T22:47:58.001Z,3.60
2018-10-19T22:50:26.925Z,3.20
2018-10-19T22:52:56.113Z,3.80
2018-10-19T22:55:25.013Z,2.90
2018-10-19T22:57:53.966Z,3.10
2018-10-19T23:00:22.885Z,2.80
2018-10-19T23:02:51.806Z,2.47
2018-10-19T23:05:20.766Z,2.80
2018-10-19T23:07:49.673Z,2.43
2018-10-19T23:10:18.609Z,2.50
2018-10-19T23:12:47.514Z,2.90
2018-10-19T23:15:16.451Z,3.30
2018-10-19T23:17:45.366Z,3.90
2018-10-19T23:20:14.290Z,5.20
2018-10-19T23:22:43.206Z,4.60
2018-10-19T23:25:12.636Z,4.70
2018-10-19T23:27:41.567Z,5.60
2018-10-19T23:30:10.485Z,5.28
2018-10-19T23:32:40.406Z,4.75
2018-10-19T23:35:09.346Z,4.58
2018-10-19T23:37:38.382Z,4.50
2018-10-19T23:40:07.589Z,5.00
2018-10-19T23:42:36.532Z,4.50
2018-10-19T23:45:06.634Z,4.70
2018-10-19T23:47:35.581Z,4.60
2018-10-19T23:50:04.669Z,4.90
2018-10-19T23:52:33.603Z,4.67
2018-10-19T23:55:02.599Z,4.60
2018-10-19T23:57:32.534Z,4.86
